Artesia Camp, New Mexico
Current Conditions -  °F | °C
As of 6:58 AM on Saturday 25 Oct 2014 (Local Time) from KHMN Reporting Station
Clear Clear  
Wind Chill:   Ceiling: Unl
Heat Index:   Visibility: 10mi
Dew Point:   Wind: 5mph
Humidity: 79%   Direction: 280°W
Pressure: 30.22"   Gusts: NA
Location:  32.7847°N, 105.644°W
Report Text: KHMN 251258Z AUTO 28004KT 10SM CLR 09/06 A3022 RMK AO2 SLP185 T00920058 $
Loading
Personal Weather Stations






























Interactive Weather Map
Tropical Storm Tracking
New forecast layout! Learn more

10-Day Weather Forecast

Advertisements
Track Severe Weather on mobile